»·PEaware :: N739WN KTOA-KVNY

N739WN :: KTOA-KVNY

FLIGHT INFORMATION

Flight Status: Arrived
Operator: Privately registered:
United States
More flights under this callsign
Pilot: Marshall P. (23493)
Aircraft: MOONEY M-20 201 202 205 220 ATS MSE
(M20P)
More flights by this aircraft type
Origin: KTOA Zamperini
United States
Destination: KVNY Van Nuys
United States
More flights between these airports :: More routes between these airports
Route: +SMO SMO317R CANOG
File this flight plan on PilotEdge
Remarks: TEC route SCTP2; Scenario 1
Altitude:
(Current/Filed)
4,000ft
Speed:
(Current/Filed)
160kts
Departed: 08-Dec-19 07:45 PM
Arrived: 08-Dec-19 09:05 PM
Distance/Time
Traveled:
25nm/1:20
Distance/Time
To Go:
Arrived

Flight Plot

Page will automatically refresh every two minutes.


Map Options




Map Legend


Flown Route
Filed Route
Departure Airport
Arrival Airport
Navaid (VOR, NDB)
Fix

Horizontal Profiles

Position Reports

Time Latitude Longitude Heading Altitude Ground
Speed
08-Dec-19 19:25 33.803347 -118.344052 39 99ft 0kts
08-Dec-19 19:26 33.803347 -118.344052 39 99ft 0kts
08-Dec-19 19:27 33.803347 -118.344052 39 99ft 0kts
08-Dec-19 19:28 33.803347 -118.344052 39 99ft 0kts
08-Dec-19 19:29 33.803347 -118.344052 39 99ft 0kts
08-Dec-19 19:30 33.803347 -118.344052 39 99ft 0kts
08-Dec-19 19:31 33.803347 -118.344052 39 99ft 0kts
08-Dec-19 19:32 33.803347 -118.344052 39 99ft 0kts
08-Dec-19 19:33 33.803347 -118.344052 39 99ft 0kts
08-Dec-19 19:34 33.803347 -118.344052 39 99ft 0kts
08-Dec-19 19:35 33.803347 -118.344052 39 99ft 0kts
08-Dec-19 19:36 33.803347 -118.344052 39 99ft 0kts
08-Dec-19 19:37 33.803354 -118.344044 39 99ft 0kts
08-Dec-19 19:38 33.802956 -118.342097 106 99ft 9kts
08-Dec-19 19:39 33.800949 -118.338933 129 99ft 14kts
08-Dec-19 19:40 33.798437 -118.335146 132 99ft 12kts
08-Dec-19 19:41 33.799024 -118.333323 35 99ft 6kts
08-Dec-19 19:42 33.799060 -118.333292 35 99ft 0kts
08-Dec-19 19:43 33.799060 -118.333292 35 99ft 0kts
08-Dec-19 19:43 33.800377 -118.334046 307 99ft 36kts
08-Dec-19 19:44 33.818406 -118.358467 304 866ft 120kts
08-Dec-19 19:46 33.841404 -118.400042 308 2116ft 141kts
08-Dec-19 19:46 33.862923 -118.429953 304 2674ft 136kts
08-Dec-19 19:47 33.854273 -118.444968 169 2904ft 131kts
08-Dec-19 19:49 33.812797 -118.440769 180 3355ft 121kts
08-Dec-19 19:49 33.785691 -118.443017 194 3835ft 110kts
08-Dec-19 19:50 33.757096 -118.432692 110 4098ft 138kts
08-Dec-19 19:51 33.764210 -118.384037 92 4074ft 155kts
08-Dec-19 19:52 33.764685 -118.331855 98 4089ft 157kts
08-Dec-19 19:53 33.765162 -118.279289 90 4038ft 156kts
08-Dec-19 19:54 33.772977 -118.227870 84 4038ft 154kts
08-Dec-19 19:55 33.798035 -118.207003 306 3998ft 141kts
08-Dec-19 19:56 33.822289 -118.243310 314 4015ft 142kts
08-Dec-19 19:57 33.846704 -118.271116 314 4023ft 141kts
08-Dec-19 19:58 33.875314 -118.303459 313 4023ft 140kts
08-Dec-19 19:59 33.903692 -118.335564 313 4030ft 138kts
08-Dec-19 20:00 33.931691 -118.367274 313 4027ft 137kts
08-Dec-19 20:01 33.958411 -118.397566 313 4024ft 137kts
08-Dec-19 20:02 33.985422 -118.428206 314 4025ft 138kts
08-Dec-19 20:03 34.014516 -118.459127 327 4016ft 142kts
08-Dec-19 20:04 34.049885 -118.480740 330 4023ft 143kts
08-Dec-19 20:05 34.083645 -118.501642 330 4025ft 144kts
08-Dec-19 20:06 34.119344 -118.523857 330 4080ft 148kts
08-Dec-19 20:07 34.155008 -118.546833 330 4122ft 143kts
08-Dec-19 20:08 34.189613 -118.569757 330 4085ft 141kts
08-Dec-19 20:09 34.223720 -118.592876 330 4053ft 140kts
08-Dec-19 20:10 34.255640 -118.615107 320 4403ft 122kts
08-Dec-19 20:11 34.267643 -118.653216 288 4658ft 122kts
08-Dec-19 20:12 34.277232 -118.689657 286 4947ft 129kts
08-Dec-19 20:13 34.301480 -118.701949 19 5000ft 141kts
08-Dec-19 20:14 34.337684 -118.681457 23 4973ft 143kts
08-Dec-19 20:15 34.373767 -118.660879 23 4986ft 144kts
08-Dec-19 20:16 34.410539 -118.640011 23 4993ft 146kts
08-Dec-19 20:17 34.447465 -118.619164 23 5009ft 146kts
08-Dec-19 20:18 34.483617 -118.596806 46 4975ft 151kts
08-Dec-19 20:19 34.503492 -118.554073 90 4990ft 152kts
08-Dec-19 20:20 34.494528 -118.505806 139 5004ft 153kts
08-Dec-19 20:21 34.454030 -118.505107 189 5023ft 151kts
08-Dec-19 20:22 34.412824 -118.509887 189 4766ft 132kts
08-Dec-19 20:23 34.414690 -118.553390 284 5073ft 159kts
08-Dec-19 20:24 34.424975 -118.602463 285 4971ft 143kts
08-Dec-19 20:25 34.434247 -118.645604 285 4992ft 132kts
08-Dec-19 20:26 34.463293 -118.643788 45 5055ft 148kts
08-Dec-19 20:27 34.491414 -118.606832 45 5059ft 148kts
08-Dec-19 20:28 34.500856 -118.563424 97 5071ft 151kts
08-Dec-19 20:29 34.492090 -118.512975 135 4968ft 159kts
08-Dec-19 20:30 34.451360 -118.514526 188 4431ft 146kts
08-Dec-19 20:31 34.415837 -118.510805 167 4026ft 124kts
08-Dec-19 20:32 34.383260 -118.507495 175 3601ft 120kts
08-Dec-19 20:33 34.350592 -118.504717 180 4026ft 127kts
08-Dec-19 20:34 34.311246 -118.501341 168 3287ft 144kts
08-Dec-19 20:35 34.275059 -118.496885 175 1992ft 130kts
08-Dec-19 20:36 34.238881 -118.493287 175 1097ft 131kts
08-Dec-19 20:37 34.202751 -118.490724 178 1086ft 136kts
08-Dec-19 20:38 34.163732 -118.485193 165 1323ft 134kts
08-Dec-19 20:39 34.133903 -118.473306 153 2587ft 97kts
08-Dec-19 20:40 34.111126 -118.459653 162 3813ft 93kts
08-Dec-19 20:41 34.086356 -118.449560 168 4880ft 97kts
08-Dec-19 20:42 34.052550 -118.454023 192 4754ft 133kts
08-Dec-19 20:43 34.019747 -118.461776 197 4847ft 118kts
08-Dec-19 20:44 34.005903 -118.489461 279 4906ft 117kts
08-Dec-19 20:45 34.013096 -118.528503 287 4887ft 119kts
08-Dec-19 20:46 34.024099 -118.566497 287 4886ft 120kts
08-Dec-19 20:47 34.032149 -118.605419 276 4885ft 120kts
08-Dec-19 20:48 34.036445 -118.645294 276 4864ft 117kts
08-Dec-19 20:49 34.040554 -118.683805 276 4883ft 115kts
08-Dec-19 20:50 34.042735 -118.722619 272 4887ft 117kts
08-Dec-19 20:51 34.065046 -118.741751 353 4654ft 116kts
08-Dec-19 20:52 34.097807 -118.743712 353 3929ft 122kts
08-Dec-19 20:53 34.128951 -118.745893 353 4000ft 111kts
08-Dec-19 20:54 34.159946 -118.747911 353 3995ft 111kts
08-Dec-19 20:55 34.187782 -118.739263 53 3843ft 112kts
08-Dec-19 20:56 34.196095 -118.703681 83 3492ft 108kts
08-Dec-19 20:57 34.198202 -118.662899 86 3642ft 126kts
08-Dec-19 20:58 34.199388 -118.622050 86 3654ft 120kts
08-Dec-19 20:59 34.200456 -118.582252 86 3653ft 117kts
08-Dec-19 21:00 34.200359 -118.540808 85 2736ft 118kts
08-Dec-19 21:01 34.219342 -118.516436 350 2009ft 106kts
08-Dec-19 21:02 34.239546 -118.505726 87 1535ft 99kts
08-Dec-19 21:03 34.223277 -118.490533 175 958ft 81kts
08-Dec-19 21:04 34.208535 -118.489011 178 804ft 14kts
08-Dec-19 21:05 34.208208 -118.488418 80 804ft 0kts
08-Dec-19 21:06 34.208208 -118.488418 80 804ft 0kts
08-Dec-19 21:07 34.208208 -118.488418 80 804ft 0kts
08-Dec-19 21:08 34.208208 -118.488418 80 804ft 0kts
08-Dec-19 21:09 34.208208 -118.488418 80 804ft 0kts
08-Dec-19 21:10 34.208208 -118.488418 80 804ft 0kts
08-Dec-19 21:11 34.208208 -118.488418 80 804ft 0kts
08-Dec-19 21:12 34.208208 -118.488418 80 804ft 0kts
08-Dec-19 21:13 34.208223 -118.488371 60 804ft 3kts

Navigation Log

Ident Type
Flight plan parsing failed, navigation log unavailable